Time;durP1;ratioP1;P1;durP2;ratioP2;P2;SDS_P1;SDS_P2;PMS_P1;PMS_P2;Temp;Humidity;BMP_temperature;BMP_pressure;BME280_temperature;BME280_humidity;BME280_pressure;Samples;Min_cycle;Max_cycle;Signal;HPM_P1;HPM_P2
2023/05/02 00:02:25;;;;;;;26.75;14.00;;;;;;;6.35;56.10;95641.19;4942835;28;20077;-63
2023/05/02 00:04:50;;;;;;;20.98;14.25;;;;;;;6.17;56.46;95633.25;4944513;28;20774;-63
2023/05/02 00:07:15;;;;;;;23.42;14.15;;;;;;;6.11;56.90;95629.41;4944041;28;20366;-63
2023/05/02 00:09:41;;;;;;;16.27;12.80;;;;;;;5.85;58.11;95635.38;4942210;28;20126;-63
2023/05/02 00:12:06;;;;;;;24.08;13.88;;;;;;;5.53;59.02;95639.28;4944624;28;20039;-63
2023/05/02 00:14:32;;;;;;;24.30;14.45;;;;;;;5.47;59.47;95630.16;4941198;28;20396;-63
2023/05/02 00:16:57;;;;;;;18.80;14.05;;;;;;;5.47;59.26;95629.31;4940061;28;20354;-63
2023/05/02 00:19:22;;;;;;;19.35;14.05;;;;;;;5.56;58.86;95630.25;4944779;28;20031;-63
2023/05/02 00:21:48;;;;;;;17.55;13.90;;;;;;;5.65;58.58;95632.03;4946706;28;20066;-63
2023/05/02 00:24:15;;;;;;;22.80;14.77;;;;;;;5.65;58.14;95642.59;4943951;28;20733;-63
2023/05/02 00:26:40;;;;;;;26.35;14.05;;;;;;;5.78;57.06;95631.66;4929531;28;20069;-63
2023/05/02 00:29:08;;;;;;;16.23;12.63;;;;;;;5.86;57.17;95644.16;4945513;28;20069;-63
2023/05/02 00:31:34;;;;;;;18.75;13.48;;;;;;;5.76;57.85;95640.72;4950356;28;20747;-63
2023/05/02 00:34:00;;;;;;;23.55;14.73;;;;;;;5.72;58.16;95635.72;4945751;28;20060;-63
2023/05/02 00:36:26;;;;;;;18.77;13.93;;;;;;;6.06;58.33;95634.28;4926634;28;20053;-63
2023/05/02 00:38:51;;;;;;;25.13;14.98;;;;;;;6.32;57.32;95643.31;4946291;28;20348;-63
2023/05/02 00:41:17;;;;;;;35.75;20.08;;;;;;;6.16;57.65;95643.97;4948696;28;20111;-64
2023/05/02 00:43:42;;;;;;;21.98;15.38;;;;;;;5.86;59.40;95644.97;4947816;28;20337;-63
2023/05/02 00:46:08;;;;;;;45.20;21.80;;;;;;;5.93;59.30;95653.16;4947113;28;20338;-63
2023/05/02 00:48:33;;;;;;;29.42;18.83;;;;;;;5.80;59.93;95653.50;4912934;28;20055;-63
2023/05/02 00:50:59;;;;;;;25.33;15.93;;;;;;;5.66;61.43;95646.88;4927127;28;20047;-63
2023/05/02 00:53:25;;;;;;;25.15;16.08;;;;;;;5.63;61.72;95652.47;4915868;28;20065;-63
2023/05/02 00:55:50;;;;;;;36.90;17.45;;;;;;;6.02;61.11;95653.25;4949202;28;20562;-63
2023/05/02 00:58:16;;;;;;;24.55;17.95;;;;;;;5.64;62.45;95650.66;4950908;28;20093;-63
2023/05/02 01:01:04;;;;;;;26.15;17.88;;;;;;;6.03;60.92;95649.63;4944377;28;20073;-64
2023/05/02 01:03:32;;;;;;;19.60;14.15;;;;;;;5.42;62.49;95647.41;4990676;23;20085;-66
2023/05/02 01:06:20;;;;;;;30.30;18.50;;;;;;;5.59;62.31;95659.00;4983586;28;20533;-66
2023/05/02 01:08:54;;;;;;;31.10;18.05;;;;;;;5.77;62.42;95651.13;4955493;28;20079;-66
2023/05/02 01:12:03;;;;;;;26.25;16.25;;;;;;;5.56;63.21;95657.50;4982942;28;20115;-66
2023/05/02 01:14:41;;;;;;;39.33;17.52;;;;;;;5.80;62.16;95655.28;4953639;28;20073;-66
2023/05/02 01:17:10;;;;;;;27.10;18.83;;;;;;;5.73;62.30;95649.78;4947209;28;20079;-66
2023/05/02 01:19:37;;;;;;;27.85;18.70;;;;;;;5.94;61.63;95652.16;4993686;28;20068;-65
2023/05/02 01:22:03;;;;;;;35.42;22.48;;;;;;;6.23;60.74;95651.13;4948662;28;20438;-66
2023/05/02 01:24:36;;;;;;;27.23;20.45;;;;;;;5.80;61.82;95655.28;4946775;28;20125;-65
2023/05/02 01:27:26;;;;;;;39.80;21.75;;;;;;;5.65;62.30;95653.16;4962386;28;20308;-66
2023/05/02 01:29:52;;;;;;;24.65;19.02;;;;;;;5.96;61.26;95655.47;4983801;28;20491;-66
2023/05/02 01:32:17;;;;;;;47.13;21.63;;;;;;;6.09;60.53;95654.31;4947161;28;20052;-66
2023/05/02 01:34:43;;;;;;;44.00;22.35;;;;;;;6.05;60.50;95658.25;4983630;28;20097;-66
2023/05/02 01:37:10;;;;;;;25.90;20.52;;;;;;;6.17;60.32;95649.13;4961780;28;20073;-66
2023/05/02 01:39:35;;;;;;;26.20;20.73;;;;;;;6.22;60.06;95653.94;4960108;28;20059;-66
2023/05/02 01:42:01;;;;;;;24.75;19.30;;;;;;;5.92;61.04;95654.13;4978865;28;20081;-66
2023/05/02 01:44:26;;;;;;;38.28;22.35;;;;;;;5.92;61.46;95653.31;4979954;28;20045;-66
2023/05/02 01:46:52;;;;;;;43.88;21.95;;;;;;;5.96;61.46;95655.47;4962426;28;20040;-66
2023/05/02 01:49:17;;;;;;;31.13;20.30;;;;;;;5.44;63.24;95656.84;4945351;28;20075;-66
2023/05/02 01:51:44;;;;;;;30.92;19.27;;;;;;;5.39;63.29;95658.25;4957836;28;20044;-66
2023/05/02 01:54:10;;;;;;;39.03;21.55;;;;;;;5.62;62.60;95661.38;4945366;28;20065;-66
2023/05/02 01:56:36;;;;;;;25.55;18.33;;;;;;;5.32;63.80;95666.75;4973590;28;20066;-66
2023/05/02 01:59:04;;;;;;;35.30;21.60;;;;;;;5.24;64.29;95666.66;4958365;28;20061;-66
2023/05/02 02:01:30;;;;;;;32.40;20.65;;;;;;;5.37;63.70;95676.88;4957626;28;20150;-66
2023/05/02 02:03:55;;;;;;;31.95;23.42;;;;;;;5.41;63.27;95675.59;4976952;28;20150;-66
2023/05/02 02:06:21;;;;;;;34.40;22.85;;;;;;;5.53;63.53;95680.72;4962076;28;20088;-66
2023/05/02 02:08:46;;;;;;;28.55;18.65;;;;;;;5.30;63.88;95681.06;4957713;28;20525;-66
2023/05/02 02:11:12;;;;;;;25.10;16.95;;;;;;;5.16;64.15;95683.19;4974864;28;20047;-66
2023/05/02 02:13:41;;;;;;;56.80;20.23;;;;;;;5.01;65.13;95689.84;4960424;28;20071;-66
2023/05/02 02:16:07;;;;;;;32.15;19.48;;;;;;;4.99;65.10;95691.81;4963452;28;20045;-66
2023/05/02 02:18:35;;;;;;;49.65;18.75;;;;;;;4.97;65.42;95691.94;4944060;28;20480;-65
2023/05/02 02:21:04;;;;;;;62.38;22.63;;;;;;;5.07;64.75;95699.88;4957345;28;20589;-66
2023/05/02 02:23:29;;;;;;;29.38;16.40;;;;;;;4.75;66.17;95701.81;4945075;28;20054;-66
2023/05/02 02:25:55;;;;;;;46.92;20.42;;;;;;;4.75;66.41;95707.09;4946832;28;20172;-66
2023/05/02 02:28:20;;;;;;;32.67;22.10;;;;;;;4.82;66.09;95702.06;4947869;28;20067;-66
2023/05/02 02:30:45;;;;;;;39.63;20.48;;;;;;;4.92;65.81;95704.72;4974515;28;20062;-66
2023/05/02 02:33:11;;;;;;;116.43;22.73;;;;;;;5.02;65.40;95712.63;4988819;28;20072;-66
2023/05/02 02:35:40;;;;;;;43.58;20.65;;;;;;;4.86;65.88;95708.72;4990966;28;20053;-66
2023/05/02 02:38:28;;;;;;;34.50;22.60;;;;;;;5.07;65.54;95707.78;4965264;28;20609;-66
2023/05/02 02:41:01;;;;;;;31.67;20.95;;;;;;;5.23;64.72;95707.19;4989354;28;20132;-66
2023/05/02 02:44:05;;;;;;;32.03;20.65;;;;;;;5.07;65.62;95713.88;4962829;28;20102;-66
2023/05/02 02:46:45;;;;;;;29.02;21.95;;;;;;;5.19;65.04;95717.22;4961744;28;20352;-66
2023/05/02 02:49:23;;;;;;;26.02;18.58;;;;;;;5.02;65.13;95716.09;4969659;28;20609;-66
2023/05/02 02:52:10;;;;;;;38.47;24.00;;;;;;;5.24;64.60;95713.31;4989216;28;20109;-66
2023/05/02 02:54:45;;;;;;;29.75;22.38;;;;;;;5.14;64.67;95723.91;4976224;28;20358;-66
2023/05/02 02:57:25;;;;;;;32.22;21.55;;;;;;;5.30;64.14;95723.28;4964099;28;20097;-66
2023/05/02 02:59:58;;;;;;;26.75;18.63;;;;;;;4.97;64.83;95728.88;4961318;28;20531;-66
2023/05/02 03:02:27;;;;;;;28.60;20.38;;;;;;;4.59;66.43;95726.09;4958552;28;20286;-66
2023/05/02 03:04:52;;;;;;;36.20;25.85;;;;;;;4.79;66.08;95726.94;4963524;28;20094;-66
2023/05/02 03:07:18;;;;;;;33.55;22.33;;;;;;;5.14;64.84;95724.72;4989913;28;20051;-66
2023/05/02 03:09:44;;;;;;;40.05;26.38;;;;;;;4.94;65.75;95729.16;4945775;28;20131;-66
2023/05/02 03:12:10;;;;;;;34.83;21.33;;;;;;;4.33;67.86;95731.88;4988302;28;20061;-66
2023/05/02 03:14:36;;;;;;;36.22;21.67;;;;;;;4.33;68.63;95735.34;4985302;28;20330;-66
2023/05/02 03:17:01;;;;;;;44.60;26.48;;;;;;;4.32;68.48;95741.59;4978884;28;20233;-66
2023/05/02 03:19:27;;;;;;;32.97;20.65;;;;;;;3.77;70.68;95753.34;4988394;28;20208;-66
2023/05/02 03:21:55;;;;;;;34.60;23.98;;;;;;;3.65;70.98;95743.88;4985976;28;20076;-66
2023/05/02 03:24:20;;;;;;;32.08;19.92;;;;;;;3.74;71.36;95747.50;4980820;28;20428;-66
2023/05/02 03:26:46;;;;;;;48.22;32.45;;;;;;;2.90;74.76;95758.72;4983042;28;20137;-66
2023/05/02 03:29:12;;;;;;;43.13;28.42;;;;;;;2.77;75.90;95761.53;4979202;28;20495;-66
2023/05/02 03:31:38;;;;;;;38.70;27.30;;;;;;;3.01;75.39;95767.53;4982540;28;20140;-66
2023/05/02 03:34:03;;;;;;;41.63;27.40;;;;;;;3.27;73.50;95751.38;4980199;28;20223;-66
2023/05/02 03:36:29;;;;;;;25.40;16.88;;;;;;;3.29;73.19;95759.97;4977759;28;20079;-66
2023/05/02 03:38:54;;;;;;;32.05;19.85;;;;;;;3.51;71.89;95760.84;4978553;28;20110;-66
2023/05/02 03:41:20;;;;;;;26.35;15.52;;;;;;;3.49;71.44;95750.44;4977624;28;20069;-66
2023/05/02 03:43:45;;;;;;;32.30;18.73;;;;;;;3.69;71.27;95747.91;4982697;28;20225;-66
2023/05/02 03:46:11;;;;;;;29.30;18.40;;;;;;;3.94;69.54;95748.41;4982028;28;20162;-66
2023/05/02 03:48:36;;;;;;;29.45;18.67;;;;;;;3.79;68.75;95750.56;4985681;28;20063;-66
2023/05/02 03:51:03;;;;;;;32.70;19.95;;;;;;;3.73;69.53;95759.00;4981872;28;20052;-66
2023/05/02 03:53:30;;;;;;;35.80;22.33;;;;;;;3.96;68.19;95762.28;4983097;28;20249;-66
2023/05/02 03:55:56;;;;;;;41.90;27.05;;;;;;;4.27;67.34;95764.06;4983373;28;20487;-66
2023/05/02 03:58:22;;;;;;;33.13;19.55;;;;;;;4.11;67.76;95760.13;4988800;28;20090;-66
2023/05/02 04:00:47;;;;;;;35.08;22.75;;;;;;;4.50;65.98;95753.28;4986442;28;20072;-66
2023/05/02 04:03:12;;;;;;;42.53;23.45;;;;;;;4.46;66.02;95765.91;4980776;28;20079;-66
2023/05/02 04:05:38;;;;;;;27.38;15.95;;;;;;;4.33;66.51;95771.44;4979473;28;20479;-66
2023/05/02 04:08:04;;;;;;;34.15;20.27;;;;;;;4.28;66.34;95769.19;4981979;28;20088;-66
2023/05/02 04:10:30;;;;;;;30.15;18.95;;;;;;;4.00;67.65;95773.38;4981407;28;20111;-66
2023/05/02 04:12:55;;;;;;;33.50;19.60;;;;;;;4.27;66.69;95775.44;4986545;28;20067;-66
2023/05/02 04:15:21;;;;;;;40.10;22.02;;;;;;;4.57;65.74;95778.97;4989615;28;20268;-66
2023/05/02 04:17:46;;;;;;;38.92;23.75;;;;;;;4.78;64.90;95777.19;4994282;28;20084;-66
2023/05/02 04:20:12;;;;;;;34.38;22.70;;;;;;;4.61;65.58;95782.16;4990926;28;20067;-66
2023/05/02 04:22:45;;;;;;;38.95;22.40;;;;;;;4.78;65.55;95783.31;4993057;28;20060;-66
2023/05/02 04:25:10;;;;;;;36.45;20.20;;;;;;;4.68;65.36;95785.09;4991868;28;20073;-66
2023/05/02 04:27:35;;;;;;;35.13;21.45;;;;;;;4.23;68.04;95787.22;4993693;28;20056;-66
2023/05/02 04:30:01;;;;;;;42.20;25.75;;;;;;;3.61;69.33;95795.94;4984625;28;20079;-66
2023/05/02 04:32:26;;;;;;;43.78;25.33;;;;;;;3.93;68.85;95792.38;4995369;28;20087;-66
2023/05/02 04:34:52;;;;;;;36.67;23.27;;;;;;;3.96;68.82;95790.44;4988271;28;20513;-66
2023/05/02 04:37:17;;;;;;;44.42;25.95;;;;;;;4.27;68.33;95806.22;4988800;28;20098;-66
2023/05/02 04:39:42;;;;;;;38.00;22.00;;;;;;;3.98;68.90;95806.97;4992949;28;20075;-66
2023/05/02 04:42:08;;;;;;;37.63;21.85;;;;;;;3.39;71.41;95813.53;4990796;28;20084;-66
2023/05/02 04:44:33;;;;;;;44.15;25.38;;;;;;;3.06;72.95;95820.59;4992374;28;20063;-66
2023/05/02 04:46:59;;;;;;;42.90;24.02;;;;;;;3.30;73.05;95824.78;4986769;28;20263;-66
2023/05/02 04:49:24;;;;;;;53.13;31.48;;;;;;;3.57;71.62;95818.22;4995505;28;20092;-66
2023/05/02 04:51:51;;;;;;;37.58;22.10;;;;;;;3.52;71.48;95828.31;4997229;28;20061;-66
2023/05/02 04:54:16;;;;;;;39.97;23.67;;;;;;;3.52;72.75;95834.44;4987036;28;20092;-66
2023/05/02 04:56:42;;;;;;;39.88;20.95;;;;;;;3.55;71.85;95836.78;4997167;28;20461;-66
2023/05/02 04:59:08;;;;;;;38.33;21.38;;;;;;;3.51;72.54;95837.19;4989870;28;20279;-66
2023/05/02 05:01:33;;;;;;;40.17;22.73;;;;;;;3.38;72.44;95835.53;4989901;28;20076;-66
2023/05/02 05:03:58;;;;;;;45.03;24.13;;;;;;;3.80;70.52;95839.16;4960693;28;20103;-66
2023/05/02 05:06:24;;;;;;;45.97;24.33;;;;;;;3.04;74.59;95841.75;4961365;28;20503;-66
2023/05/02 05:08:49;;;;;;;49.53;26.73;;;;;;;3.80;71.70;95839.16;4960175;28;20095;-66
2023/05/02 05:11:15;;;;;;;37.20;20.83;;;;;;;3.72;70.76;95849.50;4961397;28;20054;-66
2023/05/02 05:13:40;;;;;;;47.00;25.17;;;;;;;3.96;70.18;95840.47;4964245;28;20079;-66
2023/05/02 05:16:06;;;;;;;44.22;22.73;;;;;;;3.99;69.68;95846.34;4961176;28;20041;-66
2023/05/02 05:18:39;;;;;;;35.38;18.90;;;;;;;3.50;70.92;95856.59;4962911;28;20176;-66
2023/05/02 05:21:05;;;;;;;36.00;20.13;;;;;;;3.48;71.37;95858.50;4961235;28;20078;-66
2023/05/02 05:23:30;;;;;;;45.83;26.58;;;;;;;4.10;69.92;95855.97;4961310;28;20534;-66
2023/05/02 05:25:56;;;;;;;34.80;19.50;;;;;;;3.77;70.68;95857.84;4960798;28;20077;-66
2023/05/02 05:28:22;;;;;;;48.00;27.60;;;;;;;3.93;70.69;95863.50;4960575;28;20272;-66
2023/05/02 05:30:47;;;;;;;51.28;28.33;;;;;;;4.43;68.62;95864.53;4956880;28;20064;-66
2023/05/02 05:33:13;;;;;;;37.13;21.88;;;;;;;4.40;68.34;95858.72;4964657;28;20354;-66
2023/05/02 05:35:39;;;;;;;39.53;22.75;;;;;;;4.68;66.69;95861.56;4964668;28;20054;-66
2023/05/02 05:38:05;;;;;;;31.48;17.95;;;;;;;4.05;68.63;95871.34;4960281;28;20091;-66
2023/05/02 05:40:30;;;;;;;26.50;15.10;;;;;;;3.93;69.11;95873.19;4960486;28;20665;-66
2023/05/02 05:42:56;;;;;;;41.67;23.02;;;;;;;4.57;67.02;95875.72;4960720;28;20065;-66
2023/05/02 05:45:21;;;;;;;31.00;16.13;;;;;;;4.03;67.49;95884.63;4960286;28;20083;-66
2023/05/02 05:47:47;;;;;;;36.63;19.27;;;;;;;4.47;66.94;95878.31;4960626;28;20081;-66
2023/05/02 05:50:12;;;;;;;43.55;26.00;;;;;;;4.89;66.27;95885.22;4959972;28;20075;-66
2023/05/02 05:52:37;;;;;;;41.15;23.02;;;;;;;4.84;65.35;95879.53;4959604;28;20087;-66
2023/05/02 05:55:03;;;;;;;43.13;23.40;;;;;;;4.84;65.11;95885.63;4960230;28;20222;-67
2023/05/02 05:57:29;;;;;;;39.42;20.95;;;;;;;4.65;65.78;95889.06;4960022;28;20238;-66
2023/05/02 05:59:54;;;;;;;42.08;23.40;;;;;;;5.22;64.50;95891.16;4960790;28;20057;-66
2023/05/02 06:02:20;;;;;;;38.78;21.35;;;;;;;4.94;64.67;95898.84;4959649;28;20104;-66
2023/05/02 06:04:45;;;;;;;45.55;24.65;;;;;;;5.34;63.07;95901.59;4959067;28;20078;-66
2023/05/02 06:07:11;;;;;;;47.30;26.75;;;;;;;5.48;62.25;95909.09;4960088;28;20055;-66
2023/05/02 06:09:36;;;;;;;44.08;24.25;;;;;;;5.18;62.68;95916.19;4959841;28;20082;-66
2023/05/02 06:12:02;;;;;;;35.28;16.45;;;;;;;4.89;64.24;95916.91;4960313;28;20096;-66
2023/05/02 06:14:27;;;;;;;37.67;19.10;;;;;;;4.02;68.00;95925.09;4962706;28;20371;-66
2023/05/02 06:16:52;;;;;;;35.70;19.48;;;;;;;4.23;67.35;95923.44;4959398;28;20082;-66
2023/05/02 06:19:18;;;;;;;39.92;22.98;;;;;;;3.98;68.18;95928.16;4960159;28;20055;-66
2023/05/02 06:21:43;;;;;;;39.60;20.55;;;;;;;4.24;67.67;95938.28;4959579;28;20084;-66
2023/05/02 06:24:09;;;;;;;33.22;17.73;;;;;;;3.94;68.77;95933.66;4943308;28;20049;-66
2023/05/02 06:26:34;;;;;;;32.13;16.92;;;;;;;3.43;71.33;95946.56;4959657;28;20097;-66
2023/05/02 06:29:00;;;;;;;30.17;15.05;;;;;;;3.59;71.04;95950.59;4958888;28;20138;-66
2023/05/02 06:31:25;;;;;;;36.92;19.42;;;;;;;3.80;69.63;95949.78;4959392;28;20065;-66
2023/05/02 06:33:51;;;;;;;33.30;18.55;;;;;;;4.01;69.22;95955.06;4962620;28;20088;-66
2023/05/02 06:36:16;;;;;;;34.30;17.58;;;;;;;4.07;69.05;95964.25;4961250;28;20058;-66
2023/05/02 06:38:42;;;;;;;36.97;19.50;;;;;;;4.24;69.04;95964.63;4959393;28;20082;-66
2023/05/02 06:41:12;;;;;;;29.05;15.35;;;;;;;4.11;67.94;95965.66;4959237;28;20082;-66
2023/05/02 06:43:37;;;;;;;26.92;12.95;;;;;;;4.48;67.01;95963.50;4961643;28;20101;-66
2023/05/02 06:46:05;;;;;;;27.02;14.73;;;;;;;4.56;66.23;95967.16;4958059;28;20071;-66
2023/05/02 06:48:31;;;;;;;29.45;14.10;;;;;;;4.67;65.65;95962.78;4958510;28;20074;-66
2023/05/02 06:50:56;;;;;;;22.30;12.40;;;;;;;4.78;64.45;95967.13;4958429;28;20052;-66
2023/05/02 06:53:22;;;;;;;20.48;11.38;;;;;;;4.65;64.48;95980.53;4958800;28;20327;-66
2023/05/02 06:55:47;;;;;;;27.63;14.18;;;;;;;4.99;63.87;95977.63;4951323;28;20054;-66
2023/05/02 06:58:13;;;;;;;26.15;15.32;;;;;;;5.51;62.93;95981.09;4938251;28;20071;-66
2023/05/02 07:00:38;;;;;;;25.02;14.85;;;;;;;5.79;61.32;95981.25;4957698;28;20059;-67
2023/05/02 07:03:04;;;;;;;27.55;13.48;;;;;;;5.98;60.45;95983.91;4961723;28;20384;-66
2023/05/02 07:05:30;;;;;;;23.05;13.82;;;;;;;6.24;59.72;95985.97;4955652;28;20244;-66
2023/05/02 07:07:55;;;;;;;22.92;13.65;;;;;;;6.06;60.08;95991.13;4957653;28;20385;-66
2023/05/02 07:10:21;;;;;;;19.02;11.88;;;;;;;6.43;58.78;95994.81;4956945;28;20106;-66
2023/05/02 07:12:46;;;;;;;13.88;8.00;;;;;;;5.84;60.02;96000.16;4956928;28;20057;-66
2023/05/02 07:15:12;;;;;;;22.38;11.43;;;;;;;6.08;59.24;95997.13;4958770;28;20059;-66
2023/05/02 07:17:38;;;;;;;17.15;10.43;;;;;;;5.59;61.08;95999.75;4953154;28;20082;-66
2023/05/02 07:20:04;;;;;;;20.20;11.77;;;;;;;5.40;62.72;96006.66;4955724;28;20065;-66
2023/05/02 07:22:30;;;;;;;19.75;11.50;;;;;;;5.85;61.27;96009.78;4957237;28;20087;-66
2023/05/02 07:25:00;;;;;;;14.80;8.15;;;;;;;5.02;63.52;96009.03;4958542;28;20526;-66
2023/05/02 07:27:26;;;;;;;19.65;10.73;;;;;;;4.57;66.27;96021.59;4955605;28;20051;-66
2023/05/02 07:29:51;;;;;;;19.65;9.65;;;;;;;4.46;66.31;96026.94;4956043;28;20366;-66
2023/05/02 07:32:16;;;;;;;18.45;9.88;;;;;;;4.48;66.49;96032.06;4955999;28;20064;-66
2023/05/02 07:34:42;;;;;;;22.30;12.32;;;;;;;4.60;66.41;96025.78;4966991;28;20076;-66
2023/05/02 07:37:08;;;;;;;18.55;10.57;;;;;;;5.14;65.30;96027.44;4960490;28;20077;-66
2023/05/02 07:39:33;;;;;;;22.25;11.50;;;;;;;5.58;63.46;96027.13;4963923;28;20136;-66
2023/05/02 07:41:59;;;;;;;22.45;11.25;;;;;;;5.55;63.43;96032.69;4962191;28;20070;-66
2023/05/02 07:44:24;;;;;;;20.15;10.98;;;;;;;5.84;61.87;96027.44;4958945;28;20051;-66
2023/05/02 07:46:51;;;;;;;21.75;13.07;;;;;;;5.72;62.72;96037.28;4959309;28;20133;-66
2023/05/02 07:49:16;;;;;;;21.30;10.77;;;;;;;6.03;61.92;96032.88;4961629;28;20077;-66
2023/05/02 07:51:43;;;;;;;17.85;8.90;;;;;;;5.98;62.09;96033.28;4965648;28;20418;-66
2023/05/02 07:54:18;;;;;;;18.63;10.73;;;;;;;6.31;61.68;96030.34;4961365;28;20288;-66
2023/05/02 07:56:43;;;;;;;17.67;9.25;;;;;;;6.51;60.37;96028.56;4959962;28;20096;-66
2023/05/02 07:59:10;;;;;;;13.50;6.47;;;;;;;6.36;61.37;96036.06;4962360;28;20023;-66
2023/05/02 08:01:35;;;;;;;17.85;7.75;;;;;;;6.62;59.56;96035.47;4958477;28;20531;-66
2023/05/02 08:04:01;;;;;;;16.75;9.45;;;;;;;6.88;58.09;96038.34;4982358;28;20175;-66
2023/05/02 08:06:27;;;;;;;15.15;8.73;;;;;;;7.11;57.20;96045.09;4979919;28;20076;-66
2023/05/02 08:08:53;;;;;;;11.73;6.20;;;;;;;6.82;57.56;96040.72;4984822;28;20068;-66
2023/05/02 08:11:21;;;;;;;18.77;10.05;;;;;;;7.46;56.99;96035.59;4981791;28;20051;-66
2023/05/02 08:13:46;;;;;;;17.80;9.07;;;;;;;7.92;55.36;96040.06;4984462;28;20069;-66
2023/05/02 08:16:12;;;;;;;14.85;8.05;;;;;;;7.62;56.37;96052.66;4983324;28;20358;-66
2023/05/02 08:18:37;;;;;;;13.20;8.18;;;;;;;7.41;56.40;96045.78;4981744;28;20030;-66
2023/05/02 08:21:03;;;;;;;13.75;8.38;;;;;;;8.05;53.75;96045.00;4991022;28;20064;-66
2023/05/02 08:23:28;;;;;;;7.85;5.13;;;;;;;7.51;54.94;96051.88;4988472;28;20038;-66
2023/05/02 08:25:54;;;;;;;15.15;9.10;;;;;;;8.33;53.97;96058.16;4981244;28;20219;-66
2023/05/02 08:28:20;;;;;;;15.30;6.78;;;;;;;7.92;54.71;96055.97;4981432;28;20510;-66
2023/05/02 08:30:45;;;;;;;12.63;7.05;;;;;;;7.99;53.88;96053.56;4984874;28;20034;-66
2023/05/02 08:33:10;;;;;;;9.32;5.82;;;;;;;7.25;54.79;96064.97;4984601;28;20037;-66
2023/05/02 08:35:36;;;;;;;9.88;6.03;;;;;;;7.25;54.46;96064.97;4987718;28;20112;-66
2023/05/02 08:38:01;;;;;;;11.05;7.15;;;;;;;7.40;55.05;96073.25;4987804;28;20622;-66
2023/05/02 08:40:26;;;;;;;13.48;7.38;;;;;;;7.44;54.57;96073.81;4978749;28;20035;-66
2023/05/02 08:42:52;;;;;;;13.98;6.60;;;;;;;7.61;54.01;96072.16;4985239;28;20502;-66
2023/05/02 08:45:18;;;;;;;13.30;7.38;;;;;;;7.05;55.09;96083.59;4964682;28;20050;-66
2023/05/02 08:47:43;;;;;;;13.35;8.82;;;;;;;6.91;56.50;96082.22;4967022;28;20145;-66
2023/05/02 08:50:09;;;;;;;11.85;8.07;;;;;;;6.91;56.78;96076.94;4948022;28;20042;-66
2023/05/02 08:52:35;;;;;;;11.32;6.47;;;;;;;6.16;58.15;96077.53;4949307;28;20119;-66
2023/05/02 08:55:02;;;;;;;13.88;9.13;;;;;;;7.00;56.35;96081.34;4992865;28;20434;-66
2023/05/02 08:57:28;;;;;;;10.68;5.90;;;;;;;7.06;56.03;96084.41;4968436;28;20079;-65
2023/05/02 08:59:53;;;;;;;12.43;7.28;;;;;;;7.20;55.27;96083.09;4983021;28;20117;-65
2023/05/02 09:02:42;;;;;;;10.88;6.45;;;;;;;6.86;55.85;96095.88;4979450;28;20105;-66
2023/05/02 09:05:07;;;;;;;13.05;8.57;;;;;;;8.21;54.70;96092.06;4939863;28;20039;-66
2023/05/02 09:07:46;;;;;;;11.18;6.60;;;;;;;8.15;52.15;96090.84;4947420;28;20060;-66
2023/05/02 09:10:15;;;;;;;14.60;8.50;;;;;;;8.47;51.36;96093.94;4959536;28;20077;-66
2023/05/02 09:12:40;;;;;;;14.75;8.10;;;;;;;8.85;52.07;96092.91;4959646;28;20062;-66
2023/05/02 09:15:14;;;;;;;12.52;7.47;;;;;;;9.55;49.47;96096.47;4943142;28;20069;-66
2023/05/02 09:17:43;;;;;;;12.10;7.18;;;;;;;10.09;48.97;96092.69;4943062;28;20038;-66
2023/05/02 09:20:10;;;;;;;10.43;5.47;;;;;;;9.27;47.71;96100.16;4961172;28;20127;-66
2023/05/02 09:22:36;;;;;;;8.20;5.60;;;;;;;9.00;46.30;96098.50;4960130;28;20340;-66
2023/05/02 09:25:01;;;;;;;9.38;5.70;;;;;;;7.88;50.36;96100.53;4958265;28;20434;-66
2023/05/02 09:27:26;;;;;;;7.45;5.05;;;;;;;7.96;49.86;96106.91;4960123;28;20347;-66
2023/05/02 09:29:52;;;;;;;11.00;6.25;;;;;;;7.73;50.53;96101.97;4958697;28;20492;-66
2023/05/02 09:32:17;;;;;;;5.60;3.60;;;;;;;7.67;48.58;96100.75;4928114;28;20114;-66
2023/05/02 09:35:03;;;;;;;7.55;4.72;;;;;;;7.88;47.54;96100.53;4959640;28;20047;-66
2023/05/02 09:37:34;;;;;;;8.05;5.03;;;;;;;8.63;46.50;96105.66;4959534;28;20260;-66
2023/05/02 09:40:07;;;;;;;6.28;4.78;;;;;;;8.83;47.47;96101.03;4964408;28;20323;-66
2023/05/02 09:42:33;;;;;;;7.07;4.80;;;;;;;8.35;47.99;96105.78;4959213;28;20065;-66
2023/05/02 09:44:58;;;;;;;6.20;4.05;;;;;;;7.89;47.67;96101.38;4960306;28;20061;-66
2023/05/02 09:47:25;;;;;;;5.03;3.28;;;;;;;8.12;46.52;96100.91;4958995;28;20120;-66
2023/05/02 09:49:51;;;;;;;10.68;6.63;;;;;;;7.86;48.18;96102.47;4967630;28;20046;-66
2023/05/02 09:52:18;;;;;;;7.70;4.82;;;;;;;8.06;46.82;96097.03;4958562;28;20051;-66
2023/05/02 09:54:45;;;;;;;8.02;5.25;;;;;;;8.23;45.22;96106.00;4959918;28;20116;-66
2023/05/02 09:57:10;;;;;;;5.18;2.60;;;;;;;7.81;44.70;96109.19;4960026;28;20039;-66
2023/05/02 09:59:36;;;;;;;11.23;6.30;;;;;;;8.06;46.66;96107.66;4959677;28;20073;-66
2023/05/02 10:02:02;;;;;;;10.27;5.75;;;;;;;8.02;46.19;96119.53;4939484;28;20046;-66
2023/05/02 10:04:29;;;;;;;7.68;5.82;;;;;;;8.02;47.75;96120.38;4957078;28;20031;-66
2023/05/02 10:06:55;;;;;;;9.38;5.25;;;;;;;8.46;47.52;96124.13;4942540;28;20037;-66
2023/05/02 10:09:20;;;;;;;10.20;6.95;;;;;;;7.88;50.24;96126.19;4945317;28;20066;-66
2023/05/02 10:11:46;;;;;;;8.95;6.22;;;;;;;7.71;51.18;96133.06;4956193;28;20129;-66
2023/05/02 10:14:11;;;;;;;13.15;7.13;;;;;;;8.25;49.88;96127.91;4959432;28;20105;-66
2023/05/02 10:16:46;;;;;;;14.25;6.65;;;;;;;7.00;53.33;96142.25;4958540;28;20031;-66
2023/05/02 10:19:11;;;;;;;7.10;4.93;;;;;;;6.61;55.03;96142.31;4958673;28;20037;-65
2023/05/02 10:21:37;;;;;;;9.18;5.68;;;;;;;6.66;55.48;96141.88;4941266;28;20076;-66
2023/05/02 10:24:03;;;;;;;11.13;7.28;;;;;;;7.20;55.20;96144.84;4941540;28;20034;-66
2023/05/02 10:26:28;;;;;;;7.30;4.63;;;;;;;8.01;51.58;96139.94;4938669;28;20075;-65
2023/05/02 10:28:55;;;;;;;6.53;4.32;;;;;;;8.36;50.83;96139.31;4955467;28;20039;-65
2023/05/02 10:31:20;;;;;;;7.35;4.03;;;;;;;8.36;50.04;96140.13;4958442;28;20033;-65
2023/05/02 10:33:46;;;;;;;17.35;12.20;;;;;;;9.13;47.64;96128.16;4957183;28;20249;-65
2023/05/02 10:36:12;;;;;;;5.70;3.47;;;;;;;8.32;49.23;96148.53;4960549;28;20030;-67
2023/05/02 10:38:41;;;;;;;6.97;3.65;;;;;;;7.73;51.29;96152.34;4954610;28;20046;-66
2023/05/02 10:41:15;;;;;;;3.97;3.10;;;;;;;8.13;48.82;96145.03;4941490;28;20068;-66
2023/05/02 10:43:41;;;;;;;10.85;4.30;;;;;;;8.74;47.97;96144.44;4939851;28;20045;-66
2023/05/02 10:46:28;;;;;;;6.18;3.13;;;;;;;8.85;50.92;96144.19;4940774;28;20026;-64
2023/05/02 10:49:10;;;;;;;4.80;3.15;;;;;;;8.89;48.69;96139.41;4958223;28;20027;-63
2023/05/02 10:51:36;;;;;;;3.67;2.60;;;;;;;8.32;49.88;96148.53;4956695;28;20057;-63
2023/05/02 10:54:23;;;;;;;3.63;2.67;;;;;;;7.55;51.85;96147.78;4957920;28;20129;-63
2023/05/02 10:59:27;;;;;;;5.07;3.55;;;;;;;5.80;55.06;96158.16;4957818;28;20437;-64
2023/05/02 11:01:52;;;;;;;8.18;3.58;;;;;;;5.55;56.67;96170.84;4956115;28;20128;-62
2023/05/02 11:04:18;;;;;;;6.88;3.83;;;;;;;5.07;55.99;96167.03;4956519;28;20046;-63
2023/05/02 11:06:55;;;;;;;3.67;2.88;;;;;;;5.46;56.11;96174.31;4940337;28;20405;-63
2023/05/02 11:09:21;;;;;;;5.63;3.45;;;;;;;4.89;57.98;96177.25;4959100;28;20089;-64
2023/05/02 11:11:47;;;;;;;9.43;3.80;;;;;;;4.95;58.72;96174.97;4955077;28;20043;-62
2023/05/02 11:14:38;;;;;;;6.20;4.05;;;;;;;4.73;56.89;96180.38;4959731;28;20066;-62
2023/05/02 11:17:05;;;;;;;9.18;4.63;;;;;;;4.76;56.56;96180.13;4947178;28;20148;-62
2023/05/02 11:19:37;;;;;;;7.72;4.03;;;;;;;4.84;57.81;96173.22;4959186;28;20062;-67
2023/05/02 11:22:22;;;;;;;9.52;4.55;;;;;;;5.29;56.94;96181.03;4957863;28;20074;-66
2023/05/02 11:24:48;;;;;;;5.38;3.65;;;;;;;5.77;55.81;96173.44;4950909;28;20471;-66
2023/05/02 11:27:32;;;;;;;7.93;5.38;;;;;;;6.14;52.95;96183.44;4956116;28;20046;-66
2023/05/02 11:29:58;;;;;;;5.57;4.40;;;;;;;6.22;54.28;96177.44;4954800;28;20099;-65
2023/05/02 11:32:25;;;;;;;8.27;4.90;;;;;;;6.95;49.79;96184.22;4955641;28;20500;-65
2023/05/02 11:34:51;;;;;;;6.82;4.18;;;;;;;6.92;50.09;96178.34;4956517;28;20124;-65